CheckWX is a tool to help pilots better visualize weather data.  It is not intended as a substitute for an official pre-flight weather briefing.

04:01:21 UTC

CYGR METAR
Îles-de-la-Madeleine Airport
Îles-de-la-Madeleine, Canada
Current

1 hour ago

CYGR 250300Z 09023G30KT 10SM -RA BKN017 OVC025 01/M01 A2981 RMK SC6SC2 LAST STFD OBS/NXT 240900Z PRESFR SLP096
Observed
Apr-25 @ 03:00 UTC
Wind
  • 090° at 23 KTS
  • Gusting to 30 KTS
Visibility
10 SM
Flight Rules
MVFR
Conditions
Light Rain
Cloud Levels
  • Broken at 1,700' AGL
  • Overcast at 2,500' AGL
Temperature
C / 34°F
Dewpoint
-1°C / 30°F
Humidity
87%
Altimeter
29.81" Hg
Pressure
1009.52 hPa
Previous

1 hour ago

CYGR 250244Z 10018G25KT 15SM -RA OVC017 01/M01 A2983 RMK SC8 LAST STFD OBS/NXT 240900Z SLP102
Observed
Apr-25 @ 02:44 UTC
Wind
  • 100° at 18 KTS
  • Gusting to 25 KTS
Visibility
15 SM
Flight Rules
MVFR
Conditions
Light Rain
Cloud Levels
  • Overcast at 1,700' AGL
Temperature
C / 34°F
Dewpoint
-1°C / 30°F
Humidity
87%
Altimeter
29.83" Hg
Pressure
1010.12 hPa
Previous

2 hours ago

CYGR 250200Z 08016KT 15SM FEW007 OVC019 01/00 A2980 RMK SF2SC6 LAST STFD OBS/NXT 240900Z SLP094
Observed
Apr-25 @ 02:00 UTC
Wind
  • 080° at 16 KTS
Visibility
15 SM
Flight Rules
MVFR
Cloud Levels
  • Few at 700' AGL
  • Overcast at 1,900' AGL
Temperature
C / 34°F
Dewpoint
C / 32°F
Humidity
93%
Altimeter
29.8" Hg
Pressure
1009.12 hPa